sensor_id;sensor_type;location;lat;lon;timestamp;P1;durP1;ratioP1;P2;durP2;ratioP2
74626;SDS011;63132;52.268;5.192;2023-02-11T00:01:21;22.97;;;5.57;;
74626;SDS011;63132;52.268;5.192;2023-02-11T00:03:46;27.13;;;5.68;;
74626;SDS011;63132;52.268;5.192;2023-02-11T00:06:12;30.50;;;6.67;;
74626;SDS011;63132;52.268;5.192;2023-02-11T00:08:38;30.15;;;5.75;;
74626;SDS011;63132;52.268;5.192;2023-02-11T00:11:04;29.42;;;6.00;;
74626;SDS011;63132;52.268;5.192;2023-02-11T00:13:29;32.20;;;6.10;;
74626;SDS011;63132;52.268;5.192;2023-02-11T00:15:55;34.33;;;5.93;;
74626;SDS011;63132;52.268;5.192;2023-02-11T00:18:21;31.88;;;6.60;;
74626;SDS011;63132;52.268;5.192;2023-02-11T00:20:46;25.80;;;5.63;;
74626;SDS011;63132;52.268;5.192;2023-02-11T00:23:12;27.20;;;6.40;;
74626;SDS011;63132;52.268;5.192;2023-02-11T00:25:42;28.90;;;6.00;;
74626;SDS011;63132;52.268;5.192;2023-02-11T00:28:09;34.67;;;6.72;;
74626;SDS011;63132;52.268;5.192;2023-02-11T00:30:35;27.20;;;5.80;;
74626;SDS011;63132;52.268;5.192;2023-02-11T00:33:01;30.27;;;6.90;;
74626;SDS011;63132;52.268;5.192;2023-02-11T00:35:27;34.00;;;6.67;;
74626;SDS011;63132;52.268;5.192;2023-02-11T00:37:53;28.02;;;6.20;;
74626;SDS011;63132;52.268;5.192;2023-02-11T00:40:19;30.13;;;6.47;;
74626;SDS011;63132;52.268;5.192;2023-02-11T00:42:45;28.90;;;6.03;;
74626;SDS011;63132;52.268;5.192;2023-02-11T00:45:11;34.72;;;6.97;;
74626;SDS011;63132;52.268;5.192;2023-02-11T00:47:36;33.55;;;6.55;;
74626;SDS011;63132;52.268;5.192;2023-02-11T00:50:02;30.67;;;6.50;;
74626;SDS011;63132;52.268;5.192;2023-02-11T00:52:29;28.52;;;6.53;;
74626;SDS011;63132;52.268;5.192;2023-02-11T00:54:55;27.48;;;6.30;;
74626;SDS011;63132;52.268;5.192;2023-02-11T00:57:20;34.87;;;6.87;;
74626;SDS011;63132;52.268;5.192;2023-02-11T00:59:46;35.85;;;7.07;;
74626;SDS011;63132;52.268;5.192;2023-02-11T01:02:11;32.15;;;6.40;;
74626;SDS011;63132;52.268;5.192;2023-02-11T01:04:37;32.83;;;7.47;;
74626;SDS011;63132;52.268;5.192;2023-02-11T01:07:02;34.23;;;6.90;;
74626;SDS011;63132;52.268;5.192;2023-02-11T01:09:28;31.93;;;6.90;;
74626;SDS011;63132;52.268;5.192;2023-02-11T01:11:53;29.90;;;6.45;;
74626;SDS011;63132;52.268;5.192;2023-02-11T01:14:18;30.00;;;6.77;;
74626;SDS011;63132;52.268;5.192;2023-02-11T01:16:44;32.07;;;7.10;;
74626;SDS011;63132;52.268;5.192;2023-02-11T01:19:09;37.05;;;7.85;;
74626;SDS011;63132;52.268;5.192;2023-02-11T01:21:35;33.85;;;6.47;;
74626;SDS011;63132;52.268;5.192;2023-02-11T01:24:00;32.70;;;6.63;;
74626;SDS011;63132;52.268;5.192;2023-02-11T01:26:25;30.73;;;6.87;;
74626;SDS011;63132;52.268;5.192;2023-02-11T01:28:51;31.20;;;7.43;;
74626;SDS011;63132;52.268;5.192;2023-02-11T01:31:16;32.30;;;7.53;;
74626;SDS011;63132;52.268;5.192;2023-02-11T01:33:42;32.60;;;6.87;;
74626;SDS011;63132;52.268;5.192;2023-02-11T01:36:07;30.83;;;6.60;;
74626;SDS011;63132;52.268;5.192;2023-02-11T01:38:34;35.53;;;7.47;;
74626;SDS011;63132;52.268;5.192;2023-02-11T01:41:01;32.67;;;7.80;;
74626;SDS011;63132;52.268;5.192;2023-02-11T01:43:31;32.03;;;6.70;;
74626;SDS011;63132;52.268;5.192;2023-02-11T01:48:46;29.55;;;7.40;;
74626;SDS011;63132;52.268;5.192;2023-02-11T01:51:20;31.42;;;7.13;;
74626;SDS011;63132;52.268;5.192;2023-02-11T01:53:48;32.27;;;7.73;;
74626;SDS011;63132;52.268;5.192;2023-02-11T01:56:34;28.67;;;7.55;;
74626;SDS011;63132;52.268;5.192;2023-02-11T01:59:37;31.88;;;7.25;;
74626;SDS011;63132;52.268;5.192;2023-02-11T02:02:09;35.70;;;7.00;;
74626;SDS011;63132;52.268;5.192;2023-02-11T02:04:45;31.70;;;7.20;;
74626;SDS011;63132;52.268;5.192;2023-02-11T02:07:34;40.83;;;8.65;;
74626;SDS011;63132;52.268;5.192;2023-02-11T02:10:07;27.80;;;7.65;;
74626;SDS011;63132;52.268;5.192;2023-02-11T02:12:37;34.53;;;7.43;;
74626;SDS011;63132;52.268;5.192;2023-02-11T02:15:19;27.40;;;6.90;;
74626;SDS011;63132;52.268;5.192;2023-02-11T02:17:56;35.50;;;7.95;;
74626;SDS011;63132;52.268;5.192;2023-02-11T02:34:17;27.58;;;7.50;;
74626;SDS011;63132;52.268;5.192;2023-02-11T02:37:05;36.65;;;7.85;;
74626;SDS011;63132;52.268;5.192;2023-02-11T02:39:35;39.72;;;8.68;;
74626;SDS011;63132;52.268;5.192;2023-02-11T02:42:01;33.45;;;7.80;;
74626;SDS011;63132;52.268;5.192;2023-02-11T02:44:27;33.67;;;8.18;;
74626;SDS011;63132;52.268;5.192;2023-02-11T02:46:53;29.70;;;7.65;;
74626;SDS011;63132;52.268;5.192;2023-02-11T02:49:19;27.33;;;7.60;;
74626;SDS011;63132;52.268;5.192;2023-02-11T02:54:45;31.27;;;8.52;;
74626;SDS011;63132;52.268;5.192;2023-02-11T03:00:23;32.90;;;8.97;;
74626;SDS011;63132;52.268;5.192;2023-02-11T03:03:04;33.67;;;7.78;;
74626;SDS011;63132;52.268;5.192;2023-02-11T03:06:00;37.60;;;8.30;;
74626;SDS011;63132;52.268;5.192;2023-02-11T03:08:44;35.08;;;8.63;;
74626;SDS011;63132;52.268;5.192;2023-02-11T03:11:16;35.40;;;8.88;;
74626;SDS011;63132;52.268;5.192;2023-02-11T03:13:43;28.77;;;8.48;;
74626;SDS011;63132;52.268;5.192;2023-02-11T03:16:16;40.80;;;8.67;;
74626;SDS011;63132;52.268;5.192;2023-02-11T03:18:49;35.28;;;8.70;;
74626;SDS011;63132;52.268;5.192;2023-02-11T03:21:19;33.65;;;9.45;;
74626;SDS011;63132;52.268;5.192;2023-02-11T03:23:49;34.13;;;8.75;;
74626;SDS011;63132;52.268;5.192;2023-02-11T03:26:25;32.08;;;8.98;;
74626;SDS011;63132;52.268;5.192;2023-02-11T03:28:56;35.28;;;8.80;;
74626;SDS011;63132;52.268;5.192;2023-02-11T03:31:40;29.42;;;8.23;;
74626;SDS011;63132;52.268;5.192;2023-02-11T03:34:14;29.88;;;8.32;;
74626;SDS011;63132;52.268;5.192;2023-02-11T03:36:50;30.35;;;8.50;;
74626;SDS011;63132;52.268;5.192;2023-02-11T03:39:19;31.55;;;8.00;;
74626;SDS011;63132;52.268;5.192;2023-02-11T03:41:48;35.90;;;9.20;;
74626;SDS011;63132;52.268;5.192;2023-02-11T03:44:16;37.55;;;8.77;;
74626;SDS011;63132;52.268;5.192;2023-02-11T03:46:45;35.72;;;8.70;;
74626;SDS011;63132;52.268;5.192;2023-02-11T03:49:14;32.72;;;9.45;;
74626;SDS011;63132;52.268;5.192;2023-02-11T03:51:44;36.95;;;9.70;;
74626;SDS011;63132;52.268;5.192;2023-02-11T03:54:13;34.03;;;8.82;;
74626;SDS011;63132;52.268;5.192;2023-02-11T03:56:44;33.42;;;9.77;;
74626;SDS011;63132;52.268;5.192;2023-02-11T03:59:16;29.25;;;8.77;;
74626;SDS011;63132;52.268;5.192;2023-02-11T04:01:42;27.85;;;7.80;;
74626;SDS011;63132;52.268;5.192;2023-02-11T04:04:07;35.28;;;9.40;;
74626;SDS011;63132;52.268;5.192;2023-02-11T04:06:33;38.10;;;8.60;;
74626;SDS011;63132;52.268;5.192;2023-02-11T04:08:58;30.67;;;9.13;;
74626;SDS011;63132;52.268;5.192;2023-02-11T04:11:23;34.17;;;9.40;;
74626;SDS011;63132;52.268;5.192;2023-02-11T04:13:49;31.17;;;8.80;;
74626;SDS011;63132;52.268;5.192;2023-02-11T04:16:14;36.45;;;9.95;;
74626;SDS011;63132;52.268;5.192;2023-02-11T04:18:40;34.03;;;9.80;;
74626;SDS011;63132;52.268;5.192;2023-02-11T04:21:05;36.77;;;10.00;;
74626;SDS011;63132;52.268;5.192;2023-02-11T04:23:31;33.30;;;9.53;;
74626;SDS011;63132;52.268;5.192;2023-02-11T04:25:56;30.50;;;9.43;;
74626;SDS011;63132;52.268;5.192;2023-02-11T04:28:21;34.00;;;9.95;;
74626;SDS011;63132;52.268;5.192;2023-02-11T04:30:48;37.57;;;10.53;;
74626;SDS011;63132;52.268;5.192;2023-02-11T04:33:14;31.77;;;9.82;;
74626;SDS011;63132;52.268;5.192;2023-02-11T04:35:40;33.00;;;10.27;;
74626;SDS011;63132;52.268;5.192;2023-02-11T04:38:05;39.88;;;10.98;;
74626;SDS011;63132;52.268;5.192;2023-02-11T04:40:31;31.87;;;10.57;;
74626;SDS011;63132;52.268;5.192;2023-02-11T04:42:56;37.13;;;11.00;;
74626;SDS011;63132;52.268;5.192;2023-02-11T04:45:21;42.10;;;11.70;;
74626;SDS011;63132;52.268;5.192;2023-02-11T04:47:47;35.40;;;11.35;;
74626;SDS011;63132;52.268;5.192;2023-02-11T04:50:12;31.73;;;11.47;;
74626;SDS011;63132;52.268;5.192;2023-02-11T04:52:38;34.27;;;11.10;;
74626;SDS011;63132;52.268;5.192;2023-02-11T04:55:03;43.50;;;12.30;;
74626;SDS011;63132;52.268;5.192;2023-02-11T04:57:29;36.73;;;12.33;;
74626;SDS011;63132;52.268;5.192;2023-02-11T04:59:54;35.17;;;12.20;;
74626;SDS011;63132;52.268;5.192;2023-02-11T05:02:23;31.98;;;12.18;;
74626;SDS011;63132;52.268;5.192;2023-02-11T05:04:48;34.50;;;12.75;;
74626;SDS011;63132;52.268;5.192;2023-02-11T05:07:14;40.87;;;12.90;;
74626;SDS011;63132;52.268;5.192;2023-02-11T05:09:39;36.30;;;12.47;;
74626;SDS011;63132;52.268;5.192;2023-02-11T05:12:05;41.90;;;13.43;;
74626;SDS011;63132;52.268;5.192;2023-02-11T05:14:30;37.88;;;13.13;;
74626;SDS011;63132;52.268;5.192;2023-02-11T05:16:56;39.33;;;13.27;;
74626;SDS011;63132;52.268;5.192;2023-02-11T05:19:21;38.60;;;13.18;;
74626;SDS011;63132;52.268;5.192;2023-02-11T05:21:47;36.83;;;13.82;;
74626;SDS011;63132;52.268;5.192;2023-02-11T05:24:12;42.50;;;14.23;;
74626;SDS011;63132;52.268;5.192;2023-02-11T05:26:38;38.73;;;14.63;;
74626;SDS011;63132;52.268;5.192;2023-02-11T05:29:03;38.40;;;14.40;;
74626;SDS011;63132;52.268;5.192;2023-02-11T05:31:28;37.15;;;15.05;;
74626;SDS011;63132;52.268;5.192;2023-02-11T05:33:54;37.80;;;14.50;;
74626;SDS011;63132;52.268;5.192;2023-02-11T05:36:20;37.43;;;15.23;;
74626;SDS011;63132;52.268;5.192;2023-02-11T05:38:45;40.15;;;14.73;;
74626;SDS011;63132;52.268;5.192;2023-02-11T05:41:11;42.27;;;15.77;;
74626;SDS011;63132;52.268;5.192;2023-02-11T05:43:36;43.27;;;16.03;;
74626;SDS011;63132;52.268;5.192;2023-02-11T05:46:02;41.97;;;16.60;;
74626;SDS011;63132;52.268;5.192;2023-02-11T05:48:29;38.67;;;15.80;;
74626;SDS011;63132;52.268;5.192;2023-02-11T05:50:55;39.60;;;16.15;;
74626;SDS011;63132;52.268;5.192;2023-02-11T05:53:20;43.93;;;17.53;;
74626;SDS011;63132;52.268;5.192;2023-02-11T05:55:45;38.97;;;16.80;;
74626;SDS011;63132;52.268;5.192;2023-02-11T05:58:11;37.30;;;16.03;;
74626;SDS011;63132;52.268;5.192;2023-02-11T06:00:37;50.33;;;17.57;;
74626;SDS011;63132;52.268;5.192;2023-02-11T06:03:03;43.10;;;16.95;;
74626;SDS011;63132;52.268;5.192;2023-02-11T06:05:29;44.40;;;17.27;;
74626;SDS011;63132;52.268;5.192;2023-02-11T06:07:54;42.40;;;17.40;;
74626;SDS011;63132;52.268;5.192;2023-02-11T06:10:20;45.10;;;17.87;;
74626;SDS011;63132;52.268;5.192;2023-02-11T06:12:46;42.47;;;18.58;;
74626;SDS011;63132;52.268;5.192;2023-02-11T06:15:11;46.38;;;19.45;;
74626;SDS011;63132;52.268;5.192;2023-02-11T06:17:37;42.37;;;18.77;;
74626;SDS011;63132;52.268;5.192;2023-02-11T06:20:03;46.43;;;20.10;;
74626;SDS011;63132;52.268;5.192;2023-02-11T06:22:31;45.50;;;20.10;;
74626;SDS011;63132;52.268;5.192;2023-02-11T06:24:57;44.13;;;20.53;;
74626;SDS011;63132;52.268;5.192;2023-02-11T06:27:22;44.47;;;20.00;;
74626;SDS011;63132;52.268;5.192;2023-02-11T06:29:48;41.73;;;19.70;;
74626;SDS011;63132;52.268;5.192;2023-02-11T06:32:13;43.10;;;20.53;;
74626;SDS011;63132;52.268;5.192;2023-02-11T06:34:39;48.30;;;21.02;;
74626;SDS011;63132;52.268;5.192;2023-02-11T06:37:05;47.72;;;20.65;;
74626;SDS011;63132;52.268;5.192;2023-02-11T06:39:30;42.15;;;20.33;;
74626;SDS011;63132;52.268;5.192;2023-02-11T06:41:56;48.67;;;22.07;;
74626;SDS011;63132;52.268;5.192;2023-02-11T06:44:21;43.70;;;21.63;;
74626;SDS011;63132;52.268;5.192;2023-02-11T06:46:47;52.55;;;21.77;;
74626;SDS011;63132;52.268;5.192;2023-02-11T06:49:12;52.80;;;22.90;;
74626;SDS011;63132;52.268;5.192;2023-02-11T06:51:38;46.50;;;21.83;;
74626;SDS011;63132;52.268;5.192;2023-02-11T06:54:04;41.60;;;21.30;;
74626;SDS011;63132;52.268;5.192;2023-02-11T06:56:30;50.03;;;23.05;;
74626;SDS011;63132;52.268;5.192;2023-02-11T06:58:56;43.45;;;21.25;;
74626;SDS011;63132;52.268;5.192;2023-02-11T07:01:22;45.45;;;22.77;;
74626;SDS011;63132;52.268;5.192;2023-02-11T07:03:49;45.92;;;23.08;;
74626;SDS011;63132;52.268;5.192;2023-02-11T07:06:17;47.08;;;23.65;;
74626;SDS011;63132;52.268;5.192;2023-02-11T07:08:44;51.42;;;23.92;;
74626;SDS011;63132;52.268;5.192;2023-02-11T07:11:14;50.45;;;24.25;;
74626;SDS011;63132;52.268;5.192;2023-02-11T07:13:42;49.38;;;24.73;;
74626;SDS011;63132;52.268;5.192;2023-02-11T07:16:09;52.92;;;24.70;;
74626;SDS011;63132;52.268;5.192;2023-02-11T07:18:36;51.63;;;25.97;;
74626;SDS011;63132;52.268;5.192;2023-02-11T07:21:05;53.13;;;25.80;;
74626;SDS011;63132;52.268;5.192;2023-02-11T07:23:32;51.93;;;25.43;;
74626;SDS011;63132;52.268;5.192;2023-02-11T07:26:00;54.47;;;26.02;;
74626;SDS011;63132;52.268;5.192;2023-02-11T07:28:27;48.97;;;25.33;;
74626;SDS011;63132;52.268;5.192;2023-02-11T07:30:52;52.60;;;25.67;;
74626;SDS011;63132;52.268;5.192;2023-02-11T07:33:18;50.53;;;24.90;;
74626;SDS011;63132;52.268;5.192;2023-02-11T07:35:43;52.00;;;27.00;;
74626;SDS011;63132;52.268;5.192;2023-02-11T07:38:09;55.10;;;26.33;;
74626;SDS011;63132;52.268;5.192;2023-02-11T07:40:35;53.55;;;26.10;;
74626;SDS011;63132;52.268;5.192;2023-02-11T07:43:00;50.55;;;25.23;;
74626;SDS011;63132;52.268;5.192;2023-02-11T07:45:26;54.53;;;27.10;;
74626;SDS011;63132;52.268;5.192;2023-02-11T07:47:52;52.28;;;27.15;;
74626;SDS011;63132;52.268;5.192;2023-02-11T07:50:17;52.00;;;26.60;;
74626;SDS011;63132;52.268;5.192;2023-02-11T07:52:43;57.10;;;27.63;;
74626;SDS011;63132;52.268;5.192;2023-02-11T07:55:08;56.93;;;28.37;;
74626;SDS011;63132;52.268;5.192;2023-02-11T07:57:34;56.95;;;27.65;;
74626;SDS011;63132;52.268;5.192;2023-02-11T08:00:00;59.17;;;28.52;;
74626;SDS011;63132;52.268;5.192;2023-02-11T08:02:25;56.38;;;28.60;;
74626;SDS011;63132;52.268;5.192;2023-02-11T08:04:50;54.57;;;28.10;;
74626;SDS011;63132;52.268;5.192;2023-02-11T08:07:17;54.77;;;27.80;;
74626;SDS011;63132;52.268;5.192;2023-02-11T08:09:43;53.63;;;27.70;;
74626;SDS011;63132;52.268;5.192;2023-02-11T08:12:09;52.80;;;27.47;;
74626;SDS011;63132;52.268;5.192;2023-02-11T08:14:34;57.73;;;28.30;;
74626;SDS011;63132;52.268;5.192;2023-02-11T08:16:59;55.37;;;28.03;;
74626;SDS011;63132;52.268;5.192;2023-02-11T08:19:25;53.97;;;27.85;;
74626;SDS011;63132;52.268;5.192;2023-02-11T08:21:53;48.50;;;27.00;;
74626;SDS011;63132;52.268;5.192;2023-02-11T08:24:22;50.47;;;27.42;;
74626;SDS011;63132;52.268;5.192;2023-02-11T08:26:48;48.50;;;26.67;;
74626;SDS011;63132;52.268;5.192;2023-02-11T08:29:13;52.33;;;27.27;;
74626;SDS011;63132;52.268;5.192;2023-02-11T08:31:41;48.70;;;25.00;;
74626;SDS011;63132;52.268;5.192;2023-02-11T08:34:08;45.53;;;25.15;;
74626;SDS011;63132;52.268;5.192;2023-02-11T08:36:36;46.53;;;25.55;;
74626;SDS011;63132;52.268;5.192;2023-02-11T08:39:07;48.80;;;26.05;;
74626;SDS011;63132;52.268;5.192;2023-02-11T08:41:36;42.90;;;24.45;;
74626;SDS011;63132;52.268;5.192;2023-02-11T08:44:02;40.75;;;23.20;;
74626;SDS011;63132;52.268;5.192;2023-02-11T08:46:28;44.10;;;23.60;;
74626;SDS011;63132;52.268;5.192;2023-02-11T08:48:54;47.50;;;23.57;;
74626;SDS011;63132;52.268;5.192;2023-02-11T08:51:21;41.73;;;23.63;;
74626;SDS011;63132;52.268;5.192;2023-02-11T08:53:48;43.23;;;24.50;;
74626;SDS011;63132;52.268;5.192;2023-02-11T08:56:15;41.25;;;23.05;;
74626;SDS011;63132;52.268;5.192;2023-02-11T08:58:41;42.55;;;23.20;;
74626;SDS011;63132;52.268;5.192;2023-02-11T09:01:11;37.07;;;22.20;;
74626;SDS011;63132;52.268;5.192;2023-02-11T09:03:41;37.60;;;22.47;;
74626;SDS011;63132;52.268;5.192;2023-02-11T09:06:07;36.57;;;21.80;;
74626;SDS011;63132;52.268;5.192;2023-02-11T09:08:35;38.72;;;22.38;;
74626;SDS011;63132;52.268;5.192;2023-02-11T09:11:02;34.10;;;21.52;;
74626;SDS011;63132;52.268;5.192;2023-02-11T09:13:29;38.28;;;22.42;;
74626;SDS011;63132;52.268;5.192;2023-02-11T09:15:55;36.95;;;21.70;;
74626;SDS011;63132;52.268;5.192;2023-02-11T09:18:20;38.35;;;21.98;;
74626;SDS011;63132;52.268;5.192;2023-02-11T09:20:46;37.37;;;21.50;;
74626;SDS011;63132;52.268;5.192;2023-02-11T09:23:11;37.90;;;21.48;;
74626;SDS011;63132;52.268;5.192;2023-02-11T09:25:38;38.80;;;21.23;;
74626;SDS011;63132;52.268;5.192;2023-02-11T09:28:04;35.53;;;21.27;;
74626;SDS011;63132;52.268;5.192;2023-02-11T09:30:30;34.40;;;20.70;;
74626;SDS011;63132;52.268;5.192;2023-02-11T09:32:55;34.38;;;20.98;;
74626;SDS011;63132;52.268;5.192;2023-02-11T09:35:21;38.97;;;21.57;;
74626;SDS011;63132;52.268;5.192;2023-02-11T09:37:46;37.47;;;20.30;;
74626;SDS011;63132;52.268;5.192;2023-02-11T09:40:12;33.27;;;20.97;;
74626;SDS011;63132;52.268;5.192;2023-02-11T09:42:58;35.42;;;20.48;;
74626;SDS011;63132;52.268;5.192;2023-02-11T09:45:32;35.80;;;20.33;;
74626;SDS011;63132;52.268;5.192;2023-02-11T09:48:16;31.58;;;19.75;;
74626;SDS011;63132;52.268;5.192;2023-02-11T09:50:53;33.77;;;20.47;;
74626;SDS011;63132;52.268;5.192;2023-02-11T09:53:26;32.35;;;19.95;;
74626;SDS011;63132;52.268;5.192;2023-02-11T09:55:54;33.88;;;19.13;;
74626;SDS011;63132;52.268;5.192;2023-02-11T09:58:25;33.22;;;19.17;;
74626;SDS011;63132;52.268;5.192;2023-02-11T10:06:18;29.73;;;18.60;;
74626;SDS011;63132;52.268;5.192;2023-02-11T10:09:08;29.27;;;17.50;;
74626;SDS011;63132;52.268;5.192;2023-02-11T10:22:53;26.52;;;16.60;;
74626;SDS011;63132;52.268;5.192;2023-02-11T10:25:23;30.05;;;16.75;;
74626;SDS011;63132;52.268;5.192;2023-02-11T10:27:51;28.10;;;16.73;;
74626;SDS011;63132;52.268;5.192;2023-02-11T10:30:29;25.67;;;15.80;;
74626;SDS011;63132;52.268;5.192;2023-02-11T10:33:09;24.77;;;15.85;;
74626;SDS011;63132;52.268;5.192;2023-02-11T10:35:40;27.70;;;15.52;;
74626;SDS011;63132;52.268;5.192;2023-02-11T10:38:07;27.08;;;14.68;;
74626;SDS011;63132;52.268;5.192;2023-02-11T10:40:35;25.77;;;14.80;;
74626;SDS011;63132;52.268;5.192;2023-02-11T10:43:02;23.77;;;14.53;;
74626;SDS011;63132;52.268;5.192;2023-02-11T10:45:33;24.52;;;14.40;;
74626;SDS011;63132;52.268;5.192;2023-02-11T10:48:02;20.98;;;13.07;;
74626;SDS011;63132;52.268;5.192;2023-02-11T10:50:31;21.20;;;13.10;;
74626;SDS011;63132;52.268;5.192;2023-02-11T10:53:18;19.15;;;12.40;;
74626;SDS011;63132;52.268;5.192;2023-02-11T10:55:52;19.13;;;12.25;;
74626;SDS011;63132;52.268;5.192;2023-02-11T10:58:22;20.73;;;12.03;;
74626;SDS011;63132;52.268;5.192;2023-02-11T11:00:55;19.83;;;11.93;;
74626;SDS011;63132;52.268;5.192;2023-02-11T11:03:23;23.95;;;12.60;;
74626;SDS011;63132;52.268;5.192;2023-02-11T11:05:59;15.98;;;11.00;;
74626;SDS011;63132;52.268;5.192;2023-02-11T11:11:21;18.33;;;11.37;;
74626;SDS011;63132;52.268;5.192;2023-02-11T11:19:13;22.35;;;13.35;;
74626;SDS011;63132;52.268;5.192;2023-02-11T11:21:44;18.10;;;10.80;;
74626;SDS011;63132;52.268;5.192;2023-02-11T11:24:28;18.75;;;10.65;;
74626;SDS011;63132;52.268;5.192;2023-02-11T11:27:00;15.55;;;10.15;;
74626;SDS011;63132;52.268;5.192;2023-02-11T11:32:01;18.17;;;10.13;;
74626;SDS011;63132;52.268;5.192;2023-02-11T11:34:30;17.83;;;9.77;;
74626;SDS011;63132;52.268;5.192;2023-02-11T11:36:58;19.58;;;10.75;;
74626;SDS011;63132;52.268;5.192;2023-02-11T11:39:33;17.98;;;10.32;;
74626;SDS011;63132;52.268;5.192;2023-02-11T11:42:00;19.02;;;10.20;;
74626;SDS011;63132;52.268;5.192;2023-02-11T11:44:32;16.40;;;9.23;;
74626;SDS011;63132;52.268;5.192;2023-02-11T11:49:36;15.13;;;8.80;;
74626;SDS011;63132;52.268;5.192;2023-02-11T11:57:39;16.60;;;9.27;;
74626;SDS011;63132;52.268;5.192;2023-02-11T12:00:09;13.37;;;8.63;;
74626;SDS011;63132;52.268;5.192;2023-02-11T12:08:30;16.23;;;9.45;;
74626;SDS011;63132;52.268;5.192;2023-02-11T12:11:08;12.18;;;8.82;;
74626;SDS011;63132;52.268;5.192;2023-02-11T12:22:24;16.33;;;8.75;;
74626;SDS011;63132;52.268;5.192;2023-02-11T12:28:20;17.20;;;9.02;;
74626;SDS011;63132;52.268;5.192;2023-02-11T12:30:56;18.05;;;9.15;;
74626;SDS011;63132;52.268;5.192;2023-02-11T12:33:48;16.67;;;8.80;;
74626;SDS011;63132;52.268;5.192;2023-02-11T12:36:42;15.90;;;8.70;;
74626;SDS011;63132;52.268;5.192;2023-02-11T12:48:48;14.93;;;8.85;;
74626;SDS011;63132;52.268;5.192;2023-02-11T12:54:53;16.55;;;9.38;;
74626;SDS011;63132;52.268;5.192;2023-02-11T13:02:23;13.90;;;8.67;;
74626;SDS011;63132;52.268;5.192;2023-02-11T13:05:17;16.45;;;9.13;;
74626;SDS011;63132;52.268;5.192;2023-02-11T13:07:44;15.63;;;8.65;;
74626;SDS011;63132;52.268;5.192;2023-02-11T13:13:00;14.27;;;8.75;;
74626;SDS011;63132;52.268;5.192;2023-02-11T13:15:45;16.08;;;9.15;;
74626;SDS011;63132;52.268;5.192;2023-02-11T13:24:01;17.75;;;9.15;;
74626;SDS011;63132;52.268;5.192;2023-02-11T13:26:41;17.70;;;9.27;;
74626;SDS011;63132;52.268;5.192;2023-02-11T13:31:40;17.97;;;9.43;;
74626;SDS011;63132;52.268;5.192;2023-02-11T13:36:54;15.88;;;9.82;;
74626;SDS011;63132;52.268;5.192;2023-02-11T13:39:21;18.23;;;9.57;;
74626;SDS011;63132;52.268;5.192;2023-02-11T13:41:47;15.27;;;9.43;;
74626;SDS011;63132;52.268;5.192;2023-02-11T13:49:34;13.55;;;8.65;;
74626;SDS011;63132;52.268;5.192;2023-02-11T13:52:05;17.30;;;9.13;;
74626;SDS011;63132;52.268;5.192;2023-02-11T13:54:51;15.40;;;8.63;;
74626;SDS011;63132;52.268;5.192;2023-02-11T13:59:51;16.23;;;8.60;;
74626;SDS011;63132;52.268;5.192;2023-02-11T14:11:10;13.45;;;8.13;;
74626;SDS011;63132;52.268;5.192;2023-02-11T14:17:15;14.10;;;8.23;;
74626;SDS011;63132;52.268;5.192;2023-02-11T14:19:31;17.07;;;9.10;;
74626;SDS011;63132;52.268;5.192;2023-02-11T14:29:41;14.88;;;7.20;;
74626;SDS011;63132;52.268;5.192;2023-02-11T14:40:17;13.45;;;7.47;;
74626;SDS011;63132;52.268;5.192;2023-02-11T14:42:53;16.77;;;7.50;;
74626;SDS011;63132;52.268;5.192;2023-02-11T14:45:24;14.43;;;7.50;;
74626;SDS011;63132;52.268;5.192;2023-02-11T14:50:25;15.90;;;7.67;;
74626;SDS011;63132;52.268;5.192;2023-02-11T14:52:55;15.13;;;7.13;;
74626;SDS011;63132;52.268;5.192;2023-02-11T14:55:32;15.20;;;7.00;;
74626;SDS011;63132;52.268;5.192;2023-02-11T14:58:43;12.52;;;6.55;;
74626;SDS011;63132;52.268;5.192;2023-02-11T15:00:58;14.10;;;6.80;;
74626;SDS011;63132;52.268;5.192;2023-02-11T15:06:06;14.38;;;7.43;;
74626;SDS011;63132;52.268;5.192;2023-02-11T15:09:15;16.73;;;7.43;;
74626;SDS011;63132;52.268;5.192;2023-02-11T15:11:49;11.50;;;6.35;;
74626;SDS011;63132;52.268;5.192;2023-02-11T15:14:21;12.18;;;6.40;;
74626;SDS011;63132;52.268;5.192;2023-02-11T15:16:52;15.65;;;7.13;;
74626;SDS011;63132;52.268;5.192;2023-02-11T15:19:33;14.50;;;6.90;;
74626;SDS011;63132;52.268;5.192;2023-02-11T15:22:03;12.90;;;7.30;;
74626;SDS011;63132;52.268;5.192;2023-02-11T15:24:31;12.90;;;7.28;;
74626;SDS011;63132;52.268;5.192;2023-02-11T15:27:08;17.42;;;7.07;;
74626;SDS011;63132;52.268;5.192;2023-02-11T15:29:45;13.50;;;6.60;;
74626;SDS011;63132;52.268;5.192;2023-02-11T15:32:23;14.25;;;6.72;;
74626;SDS011;63132;52.268;5.192;2023-02-11T15:34:50;13.73;;;6.72;;
74626;SDS011;63132;52.268;5.192;2023-02-11T15:37:19;15.88;;;6.57;;
74626;SDS011;63132;52.268;5.192;2023-02-11T15:39:46;11.30;;;6.30;;
74626;SDS011;63132;52.268;5.192;2023-02-11T15:42:23;13.60;;;6.78;;
74626;SDS011;63132;52.268;5.192;2023-02-11T15:45:07;15.15;;;6.32;;
74626;SDS011;63132;52.268;5.192;2023-02-11T15:47:39;16.17;;;6.50;;
74626;SDS011;63132;52.268;5.192;2023-02-11T15:50:25;11.65;;;6.35;;
74626;SDS011;63132;52.268;5.192;2023-02-11T15:52:54;14.05;;;6.82;;
74626;SDS011;63132;52.268;5.192;2023-02-11T15:55:21;16.98;;;7.10;;
74626;SDS011;63132;52.268;5.192;2023-02-11T15:57:52;11.13;;;6.15;;
74626;SDS011;63132;52.268;5.192;2023-02-11T16:00:23;13.90;;;6.88;;
74626;SDS011;63132;52.268;5.192;2023-02-11T16:03:02;12.55;;;6.55;;
74626;SDS011;63132;52.268;5.192;2023-02-11T16:05:32;14.20;;;6.90;;
74626;SDS011;63132;52.268;5.192;2023-02-11T16:08:12;16.37;;;6.50;;
74626;SDS011;63132;52.268;5.192;2023-02-11T16:10:52;13.02;;;6.68;;
74626;SDS011;63132;52.268;5.192;2023-02-11T16:13:22;13.52;;;6.47;;
74626;SDS011;63132;52.268;5.192;2023-02-11T16:15:53;11.73;;;6.53;;
74626;SDS011;63132;52.268;5.192;2023-02-11T16:18:31;12.82;;;6.40;;
74626;SDS011;63132;52.268;5.192;2023-02-11T16:21:17;13.93;;;7.00;;
74626;SDS011;63132;52.268;5.192;2023-02-11T16:23:49;14.25;;;7.40;;
74626;SDS011;63132;52.268;5.192;2023-02-11T16:26:21;15.07;;;8.02;;
74626;SDS011;63132;52.268;5.192;2023-02-11T16:28:51;12.90;;;6.97;;
74626;SDS011;63132;52.268;5.192;2023-02-11T16:31:17;13.65;;;8.00;;
74626;SDS011;63132;52.268;5.192;2023-02-11T16:33:42;14.27;;;7.33;;
74626;SDS011;63132;52.268;5.192;2023-02-11T16:36:11;11.30;;;7.73;;
74626;SDS011;63132;52.268;5.192;2023-02-11T16:38:38;17.77;;;7.82;;
74626;SDS011;63132;52.268;5.192;2023-02-11T16:41:04;15.95;;;7.30;;
74626;SDS011;63132;52.268;5.192;2023-02-11T16:43:29;17.43;;;7.43;;
74626;SDS011;63132;52.268;5.192;2023-02-11T16:45:56;15.03;;;7.60;;
74626;SDS011;63132;52.268;5.192;2023-02-11T16:48:22;13.55;;;7.70;;
74626;SDS011;63132;52.268;5.192;2023-02-11T16:50:48;16.65;;;7.80;;
74626;SDS011;63132;52.268;5.192;2023-02-11T16:53:15;16.30;;;7.38;;
74626;SDS011;63132;52.268;5.192;2023-02-11T16:55:45;17.35;;;8.20;;
74626;SDS011;63132;52.268;5.192;2023-02-11T16:58:11;14.77;;;7.93;;
74626;SDS011;63132;52.268;5.192;2023-02-11T17:00:36;15.55;;;7.70;;
74626;SDS011;63132;52.268;5.192;2023-02-11T17:03:04;17.40;;;8.05;;
74626;SDS011;63132;52.268;5.192;2023-02-11T17:05:31;13.50;;;8.20;;
74626;SDS011;63132;52.268;5.192;2023-02-11T17:07:57;16.30;;;8.75;;
74626;SDS011;63132;52.268;5.192;2023-02-11T17:10:24;19.02;;;9.07;;